createdAt,value
2023-05-10T00:02:04.960Z,2.80
2023-05-10T00:04:31.441Z,2.90
2023-05-10T00:06:57.931Z,3.10
2023-05-10T00:09:24.443Z,2.70
2023-05-10T00:11:51.027Z,3.10
2023-05-10T00:14:17.872Z,3.00
2023-05-10T00:16:44.348Z,2.80
2023-05-10T00:19:10.890Z,2.80
2023-05-10T00:21:37.415Z,3.00
2023-05-10T00:24:04.388Z,3.30
2023-05-10T00:26:30.917Z,2.80
2023-05-10T00:28:57.397Z,2.60
2023-05-10T00:31:23.891Z,3.00
2023-05-10T00:33:50.425Z,2.70
2023-05-10T00:36:16.929Z,3.30
2023-05-10T00:38:43.391Z,3.10
2023-05-10T00:41:09.878Z,3.20
2023-05-10T00:43:36.352Z,3.30
2023-05-10T00:46:02.982Z,2.80
2023-05-10T00:48:30.399Z,3.60
2023-05-10T00:50:56.995Z,3.20
2023-05-10T00:53:24.193Z,3.30
2023-05-10T00:55:50.727Z,3.30
2023-05-10T00:58:17.580Z,3.20
2023-05-10T01:00:46.821Z,3.20
2023-05-10T01:03:13.400Z,3.20
2023-05-10T01:05:39.916Z,3.10
2023-05-10T01:08:06.760Z,3.10
2023-05-10T01:10:33.460Z,3.60
2023-05-10T01:13:00.884Z,3.20
2023-05-10T01:15:27.991Z,3.40
2023-05-10T01:17:54.789Z,3.60
2023-05-10T01:20:21.464Z,3.40
2023-05-10T01:23:15.696Z,3.40
2023-05-10T01:25:48.217Z,3.20
2023-05-10T01:28:26.793Z,3.50
2023-05-10T01:31:19.332Z,3.10
2023-05-10T01:34:08.507Z,3.40
2023-05-10T01:36:52.062Z,3.10
2023-05-10T01:39:26.888Z,3.20
2023-05-10T01:42:09.228Z,3.60
2023-05-10T01:44:55.196Z,3.60
2023-05-10T01:47:31.977Z,3.20
2023-05-10T01:50:04.264Z,3.50
2023-05-10T01:52:42.048Z,3.30
2023-05-10T01:55:16.423Z,3.50
2023-05-10T01:57:45.567Z,3.10
2023-05-10T02:00:14.698Z,3.00
2023-05-10T02:02:47.500Z,3.50
2023-05-10T02:05:16.216Z,3.50
2023-05-10T02:07:43.967Z,3.50
2023-05-10T02:10:12.507Z,3.80
2023-05-10T02:12:44.236Z,3.30
2023-05-10T02:15:13.875Z,3.80
2023-05-10T02:17:41.239Z,3.60
2023-05-10T02:20:10.091Z,3.50
2023-05-10T02:22:37.704Z,3.10
2023-05-10T02:25:05.047Z,3.00
2023-05-10T02:27:32.417Z,3.70
2023-05-10T02:29:59.545Z,3.70
2023-05-10T02:32:28.177Z,3.20
2023-05-10T02:34:56.948Z,3.30
2023-05-10T02:37:24.985Z,3.60
2023-05-10T02:39:53.230Z,3.30
2023-05-10T02:42:24.534Z,3.40
2023-05-10T02:44:53.856Z,3.40
2023-05-10T02:47:20.662Z,3.70
2023-05-10T02:49:47.428Z,3.30
2023-05-10T02:52:17.623Z,3.50
2023-05-10T02:54:51.282Z,3.40
2023-05-10T02:57:22.498Z,3.40
2023-05-10T02:59:48.997Z,3.50
2023-05-10T03:02:15.497Z,3.60
2023-05-10T03:04:42.082Z,3.30
2023-05-10T03:07:08.955Z,3.40
2023-05-10T03:09:35.924Z,3.60
2023-05-10T03:12:12.843Z,3.70
2023-05-10T03:14:48.602Z,3.90
2023-05-10T03:17:36.810Z,4.00
2023-05-10T03:20:30.188Z,3.70
2023-05-10T03:23:03.694Z,4.00
2023-05-10T03:25:32.102Z,4.80
2023-05-10T03:28:00.241Z,3.80
2023-05-10T03:30:26.973Z,4.30
2023-05-10T03:32:53.663Z,3.70
2023-05-10T03:35:20.201Z,3.60
2023-05-10T03:37:46.706Z,3.50
2023-05-10T03:40:13.287Z,3.60
2023-05-10T03:42:39.892Z,3.80
2023-05-10T03:45:07.254Z,3.80
2023-05-10T03:47:33.891Z,3.70
2023-05-10T03:50:00.495Z,3.90
2023-05-10T03:52:27.065Z,3.90
2023-05-10T03:54:53.596Z,3.70
2023-05-10T03:57:20.077Z,4.40
2023-05-10T03:59:46.497Z,3.90
2023-05-10T04:02:13.044Z,4.00
2023-05-10T04:04:39.603Z,3.90
2023-05-10T04:07:06.085Z,3.80
2023-05-10T04:09:32.562Z,4.10
2023-05-10T04:12:00.063Z,4.30
2023-05-10T04:14:26.602Z,4.10
2023-05-10T04:16:53.138Z,4.40
2023-05-10T04:19:19.687Z,3.90
2023-05-10T04:21:46.185Z,3.60
2023-05-10T04:24:13.563Z,3.50
2023-05-10T04:26:40.141Z,4.20
2023-05-10T04:29:06.819Z,4.20
2023-05-10T04:31:33.451Z,4.00
2023-05-10T04:33:59.978Z,4.30
2023-05-10T04:36:26.438Z,4.40
2023-05-10T04:38:52.876Z,4.10
2023-05-10T04:41:19.324Z,4.40
2023-05-10T04:43:45.792Z,4.30
2023-05-10T04:46:12.399Z,3.80
2023-05-10T04:48:38.951Z,4.40
2023-05-10T04:51:05.408Z,4.60
2023-05-10T04:53:31.913Z,4.60
2023-05-10T04:55:58.393Z,4.20
2023-05-10T04:58:24.854Z,4.50
2023-05-10T05:00:51.365Z,4.60
2023-05-10T05:03:17.953Z,4.50
2023-05-10T05:05:45.044Z,4.30
2023-05-10T05:08:11.531Z,4.40
2023-05-10T05:10:37.992Z,4.70
2023-05-10T05:13:04.534Z,4.60
2023-05-10T05:15:31.066Z,5.10
2023-05-10T05:17:57.685Z,5.40
2023-05-10T05:20:24.200Z,5.00
2023-05-10T05:22:50.676Z,4.80
2023-05-10T05:25:17.186Z,5.20
2023-05-10T05:27:43.651Z,4.70
2023-05-10T05:30:10.666Z,4.80
2023-05-10T05:32:37.216Z,4.80
2023-05-10T05:35:03.840Z,4.20
2023-05-10T05:37:30.357Z,4.60
2023-05-10T05:39:56.828Z,4.80
2023-05-10T05:42:23.264Z,4.90
2023-05-10T05:44:49.721Z,5.40
2023-05-10T05:47:16.208Z,10.00
2023-05-10T05:49:42.678Z,5.30
2023-05-10T05:52:09.124Z,4.60
2023-05-10T05:54:35.605Z,5.00
2023-05-10T05:57:02.090Z,4.50
2023-05-10T05:59:29.163Z,4.90
2023-05-10T06:01:55.807Z,4.90
2023-05-10T06:04:22.433Z,4.70
2023-05-10T06:06:49.002Z,5.10
2023-05-10T06:09:15.489Z,4.20
2023-05-10T06:11:41.989Z,5.50
2023-05-10T06:14:08.505Z,5.00
2023-05-10T06:16:35.856Z,5.80
2023-05-10T06:19:03.047Z,5.30
2023-05-10T06:21:29.604Z,5.20
2023-05-10T06:23:56.115Z,6.40
2023-05-10T06:26:22.553Z,7.80
2023-05-10T06:28:49.021Z,6.10
2023-05-10T06:31:15.547Z,5.80
2023-05-10T06:33:42.220Z,5.60
2023-05-10T06:36:08.729Z,4.60
2023-05-10T06:38:35.672Z,6.00
2023-05-10T06:41:02.130Z,4.50
2023-05-10T06:43:28.679Z,5.00
2023-05-10T06:45:55.309Z,5.30
2023-05-10T06:48:22.129Z,7.20
2023-05-10T06:50:48.616Z,4.70
2023-05-10T06:53:15.086Z,5.20
2023-05-10T06:55:41.742Z,4.20
2023-05-10T06:58:08.505Z,4.40
2023-05-10T07:00:35.237Z,4.30
2023-05-10T07:03:01.818Z,5.10
2023-05-10T07:05:28.400Z,4.90
2023-05-10T07:07:55.004Z,4.80
2023-05-10T07:10:21.536Z,4.50
2023-05-10T07:12:48.056Z,4.10
2023-05-10T07:15:14.696Z,4.50
2023-05-10T07:17:43.187Z,4.70
2023-05-10T07:20:11.808Z,4.20
2023-05-10T07:22:38.286Z,4.20
2023-05-10T07:25:05.120Z,3.00
2023-05-10T07:27:31.643Z,4.80
2023-05-10T07:29:58.195Z,6.70
2023-05-10T07:32:24.760Z,4.30
2023-05-10T07:34:51.377Z,4.10
2023-05-10T07:37:17.844Z,4.30
2023-05-10T07:39:44.329Z,4.60
2023-05-10T07:42:10.790Z,4.00
2023-05-10T07:44:37.320Z,4.20
2023-05-10T07:47:03.898Z,3.60
2023-05-10T07:49:30.379Z,5.10
2023-05-10T07:51:56.882Z,4.20
2023-05-10T07:54:23.401Z,4.20
2023-05-10T07:56:49.898Z,3.90
2023-05-10T07:59:19.219Z,4.20
2023-05-10T08:01:46.208Z,3.90
2023-05-10T08:04:12.868Z,3.70
2023-05-10T08:06:40.918Z,3.80
2023-05-10T08:09:07.449Z,3.90
2023-05-10T08:11:35.178Z,4.10
2023-05-10T08:14:02.185Z,4.40
2023-05-10T08:16:28.846Z,4.70
2023-05-10T08:18:55.420Z,3.70
2023-05-10T08:21:21.910Z,4.20
2023-05-10T08:23:48.373Z,4.00
2023-05-10T08:26:14.884Z,4.40
2023-05-10T08:28:41.705Z,3.80
2023-05-10T08:31:08.202Z,4.20
2023-05-10T08:33:34.677Z,4.10
2023-05-10T08:36:01.211Z,4.40
2023-05-10T08:38:27.698Z,4.10
2023-05-10T08:40:56.139Z,4.00
2023-05-10T08:43:25.683Z,4.00
2023-05-10T08:45:54.456Z,4.20
2023-05-10T08:48:24.772Z,5.10
2023-05-10T08:50:54.105Z,3.90
2023-05-10T08:53:21.979Z,4.00
2023-05-10T08:55:48.666Z,4.00
2023-05-10T08:58:15.417Z,3.70
2023-05-10T09:00:42.106Z,4.00
2023-05-10T09:03:08.645Z,3.60
2023-05-10T09:05:37.247Z,3.60
2023-05-10T09:08:03.887Z,4.10
2023-05-10T09:10:31.956Z,4.00
2023-05-10T09:12:59.635Z,3.80
2023-05-10T09:15:26.719Z,3.90
2023-05-10T09:17:53.805Z,3.60
2023-05-10T09:20:20.501Z,4.00
2023-05-10T09:22:47.002Z,4.20
2023-05-10T09:25:15.335Z,3.40
2023-05-10T09:27:45.799Z,4.20
2023-05-10T09:30:17.205Z,3.60
2023-05-10T09:35:19.882Z,3.80
2023-05-10T09:37:48.530Z,3.90
2023-05-10T09:40:17.129Z,4.00
2023-05-10T09:42:51.766Z,3.50
2023-05-10T09:45:18.614Z,3.50
2023-05-10T09:47:46.500Z,3.70
2023-05-10T09:50:13.173Z,3.40
2023-05-10T09:52:58.131Z,3.50
2023-05-10T09:55:42.276Z,3.70
2023-05-10T09:58:08.937Z,3.60
2023-05-10T10:00:40.037Z,3.60
2023-05-10T10:03:07.500Z,3.10
2023-05-10T10:05:35.711Z,3.50
2023-05-10T10:08:04.901Z,3.30
2023-05-10T10:10:33.377Z,3.60
2023-05-10T10:13:00.342Z,3.20
2023-05-10T10:15:27.135Z,2.90
2023-05-10T10:17:55.074Z,2.90
2023-05-10T10:20:23.656Z,3.30
2023-05-10T10:22:50.534Z,2.90
2023-05-10T10:25:19.005Z,2.70
2023-05-10T10:28:22.326Z,2.70
2023-05-10T10:30:52.179Z,3.10
2023-05-10T10:33:50.748Z,2.80
2023-05-10T10:36:17.390Z,2.80
2023-05-10T10:38:47.095Z,3.00
2023-05-10T10:41:32.496Z,3.10
2023-05-10T10:44:25.002Z,2.90
2023-05-10T10:47:03.965Z,2.90
2023-05-10T10:49:38.745Z,3.00
2023-05-10T10:52:28.014Z,5.50
2023-05-10T10:54:58.958Z,2.80
2023-05-10T10:57:25.957Z,2.70
2023-05-10T10:59:52.489Z,2.70
2023-05-10T11:02:44.214Z,2.10
2023-05-10T11:05:29.636Z,2.60
2023-05-10T11:07:58.395Z,2.80
2023-05-10T11:10:26.412Z,2.60
2023-05-10T11:13:08.261Z,2.40
2023-05-10T11:15:39.896Z,2.40
2023-05-10T11:18:21.562Z,2.30
2023-05-10T11:21:06.080Z,2.40
2023-05-10T11:23:44.822Z,2.30
2023-05-10T11:26:12.496Z,2.30
2023-05-10T11:28:49.865Z,2.30
2023-05-10T11:31:20.960Z,2.40
2023-05-10T11:33:52.689Z,2.30
2023-05-10T11:36:24.481Z,2.60
2023-05-10T11:38:50.968Z,2.40
2023-05-10T11:41:19.683Z,2.40
2023-05-10T11:43:52.082Z,2.60
2023-05-10T11:46:20.932Z,2.70
2023-05-10T11:48:50.977Z,2.70
2023-05-10T11:51:21.699Z,2.40
2023-05-10T11:53:48.584Z,3.00
2023-05-10T11:56:15.044Z,2.80
2023-05-10T11:58:41.937Z,2.60
2023-05-10T12:01:09.946Z,2.30
2023-05-10T12:03:37.121Z,2.60
2023-05-10T12:06:04.386Z,2.60
2023-05-10T12:08:31.470Z,2.20
2023-05-10T12:11:10.696Z,2.70
2023-05-10T12:13:45.394Z,2.40
2023-05-10T12:16:19.832Z,2.60
2023-05-10T12:18:49.782Z,2.70
2023-05-10T12:21:16.718Z,2.40
2023-05-10T12:23:43.514Z,2.80
2023-05-10T12:26:11.244Z,2.50
2023-05-10T12:28:38.798Z,2.30
2023-05-10T12:31:07.209Z,2.40
2023-05-10T12:33:44.489Z,2.30
2023-05-10T12:36:13.005Z,2.50
2023-05-10T12:38:41.648Z,2.70
2023-05-10T12:41:10.409Z,2.20
2023-05-10T12:43:37.526Z,2.50
2023-05-10T12:46:11.201Z,2.30
2023-05-10T12:48:39.863Z,2.30
2023-05-10T12:51:07.067Z,2.10
2023-05-10T12:53:33.635Z,2.20
2023-05-10T12:56:00.166Z,2.00
2023-05-10T12:58:35.722Z,2.00
2023-05-10T13:01:03.569Z,2.20
2023-05-10T13:03:30.111Z,2.00
2023-05-10T13:05:56.578Z,2.10
2023-05-10T13:08:23.142Z,1.90
2023-05-10T13:10:49.841Z,2.10
2023-05-10T13:13:16.606Z,2.10
2023-05-10T13:15:43.149Z,2.40
2023-05-10T13:18:09.670Z,2.70
2023-05-10T13:20:36.240Z,2.00
2023-05-10T13:23:02.702Z,2.20
2023-05-10T13:25:29.168Z,2.10
2023-05-10T13:27:56.790Z,2.10
2023-05-10T13:30:26.715Z,1.80
2023-05-10T13:32:53.320Z,2.10
2023-05-10T13:35:19.831Z,2.00
2023-05-10T13:37:46.459Z,2.30
2023-05-10T13:40:12.973Z,2.10
2023-05-10T13:42:39.477Z,2.00
2023-05-10T13:45:06.607Z,2.20
2023-05-10T13:47:33.120Z,2.30
2023-05-10T13:49:59.684Z,2.00
2023-05-10T13:52:27.226Z,2.00
2023-05-10T13:54:53.781Z,1.90
2023-05-10T13:57:20.250Z,1.80
2023-05-10T13:59:46.826Z,2.00
2023-05-10T14:02:13.666Z,1.80
2023-05-10T14:04:40.251Z,1.70
2023-05-10T14:07:06.970Z,1.90
2023-05-10T14:09:33.499Z,1.70
2023-05-10T14:11:59.987Z,1.80
2023-05-10T14:14:26.498Z,1.70
2023-05-10T14:16:53.050Z,1.60
2023-05-10T14:19:19.533Z,1.90
2023-05-10T14:21:46.085Z,2.10
2023-05-10T14:24:12.679Z,1.90
2023-05-10T14:26:39.250Z,1.90
2023-05-10T14:29:05.870Z,1.80
2023-05-10T14:31:32.715Z,2.20
2023-05-10T14:33:59.254Z,2.00
2023-05-10T14:36:25.888Z,2.00
2023-05-10T14:38:52.426Z,2.00
2023-05-10T14:41:18.924Z,2.00
2023-05-10T14:43:45.443Z,2.00
2023-05-10T14:46:12.027Z,1.80
2023-05-10T14:48:38.592Z,1.70
2023-05-10T14:51:05.075Z,1.80
2023-05-10T14:53:31.566Z,1.90
2023-05-10T14:55:58.065Z,1.70
2023-05-10T14:58:24.693Z,1.70
2023-05-10T15:00:51.196Z,2.00
2023-05-10T15:03:18.364Z,2.00
2023-05-10T15:05:45.376Z,1.60
2023-05-10T15:08:11.881Z,1.90
2023-05-10T15:10:38.371Z,1.90
2023-05-10T15:13:05.395Z,1.70
2023-05-10T15:15:32.126Z,1.90
2023-05-10T15:17:58.724Z,1.70
2023-05-10T15:20:25.223Z,1.80
2023-05-10T15:22:51.677Z,1.80
2023-05-10T15:25:18.450Z,1.80
2023-05-10T15:27:45.145Z,1.80
2023-05-10T15:30:12.232Z,1.90
2023-05-10T15:32:38.777Z,1.80
2023-05-10T15:35:05.796Z,1.80
2023-05-10T15:37:32.278Z,1.70
2023-05-10T15:39:58.697Z,2.40
2023-05-10T15:42:25.146Z,2.00
2023-05-10T15:44:51.599Z,2.00
2023-05-10T15:47:18.115Z,2.20
2023-05-10T15:49:44.598Z,2.10
2023-05-10T15:52:11.068Z,1.90
2023-05-10T15:54:37.616Z,2.30
2023-05-10T15:57:04.149Z,2.10
2023-05-10T15:59:30.604Z,2.30
2023-05-10T16:01:57.437Z,1.90
2023-05-10T16:04:24.009Z,2.10
2023-05-10T16:06:50.577Z,2.00
2023-05-10T16:09:17.064Z,5.00
2023-05-10T16:11:43.880Z,2.50
2023-05-10T16:14:10.411Z,2.60
2023-05-10T16:16:37.055Z,2.10
2023-05-10T16:19:03.714Z,1.90
2023-05-10T16:21:31.224Z,2.00
2023-05-10T16:23:58.494Z,2.30
2023-05-10T16:26:25.043Z,2.20
2023-05-10T16:28:51.620Z,2.10
2023-05-10T16:31:18.231Z,2.40
2023-05-10T16:33:44.750Z,2.20
2023-05-10T16:36:11.287Z,2.30
2023-05-10T16:38:37.801Z,2.30
2023-05-10T16:41:04.716Z,2.40
2023-05-10T16:43:32.789Z,2.40
2023-05-10T16:45:59.333Z,2.20
2023-05-10T16:48:25.845Z,2.50
2023-05-10T16:50:52.352Z,2.70
2023-05-10T16:53:18.842Z,3.40
2023-05-10T16:55:45.270Z,2.40
2023-05-10T16:58:11.760Z,2.70
2023-05-10T17:00:38.246Z,2.30
2023-05-10T17:03:04.819Z,2.50
2023-05-10T17:05:31.313Z,2.30
2023-05-10T17:07:58.129Z,2.80
2023-05-10T17:10:24.627Z,2.60
2023-05-10T17:12:51.089Z,2.30
2023-05-10T17:15:18.042Z,2.60
2023-05-10T17:17:44.769Z,2.50
2023-05-10T17:20:11.534Z,2.60
2023-05-10T17:22:38.028Z,2.40
2023-05-10T17:25:05.003Z,2.50
2023-05-10T17:27:31.511Z,2.60
2023-05-10T17:29:58.253Z,2.40
2023-05-10T17:32:25.385Z,2.40
2023-05-10T17:34:51.885Z,2.30
2023-05-10T17:37:18.431Z,2.40
2023-05-10T17:39:44.971Z,2.60
2023-05-10T17:42:11.432Z,2.60
2023-05-10T17:44:37.882Z,2.40
2023-05-10T17:47:04.339Z,2.70
2023-05-10T17:49:30.812Z,2.40
2023-05-10T17:51:57.347Z,2.90
2023-05-10T17:54:23.823Z,2.70
2023-05-10T17:56:51.585Z,2.60
2023-05-10T17:59:18.095Z,5.10
2023-05-10T18:01:44.674Z,2.70
2023-05-10T18:04:11.332Z,3.40
2023-05-10T18:06:38.263Z,2.70
2023-05-10T18:09:05.282Z,2.50
2023-05-10T18:11:31.773Z,2.30
2023-05-10T18:13:58.252Z,2.30
2023-05-10T18:16:24.748Z,2.70
2023-05-10T18:18:51.338Z,2.20
2023-05-10T18:21:17.932Z,2.40
2023-05-10T18:23:44.796Z,2.60
2023-05-10T18:26:11.527Z,2.60
2023-05-10T18:28:38.033Z,2.00
2023-05-10T18:31:04.563Z,2.80
2023-05-10T18:33:31.079Z,2.20
2023-05-10T18:35:57.601Z,2.40
2023-05-10T18:38:24.140Z,2.40
2023-05-10T18:40:50.633Z,2.30
2023-05-10T18:43:17.068Z,2.20
2023-05-10T18:45:43.539Z,2.50
2023-05-10T18:48:09.983Z,4.10
2023-05-10T18:50:36.529Z,2.40
2023-05-10T18:53:03.342Z,2.60
2023-05-10T18:55:29.883Z,2.30
2023-05-10T18:57:56.411Z,2.40
2023-05-10T19:00:22.999Z,2.50
2023-05-10T19:02:49.502Z,2.50
2023-05-10T19:05:16.452Z,2.40
2023-05-10T19:07:43.207Z,2.20
2023-05-10T19:10:12.686Z,2.60
2023-05-10T19:12:39.706Z,2.20
2023-05-10T19:15:06.967Z,2.40
2023-05-10T19:17:35.841Z,2.40
2023-05-10T19:20:03.810Z,2.50
2023-05-10T19:25:00.197Z,2.30
2023-05-10T19:27:28.974Z,2.50
2023-05-10T19:29:56.683Z,2.50
2023-05-10T19:32:24.771Z,2.60
2023-05-10T19:34:52.660Z,2.50
2023-05-10T19:37:19.221Z,2.60
2023-05-10T19:39:45.777Z,2.20
2023-05-10T19:42:12.405Z,2.20
2023-05-10T19:44:38.945Z,2.20
2023-05-10T19:47:05.623Z,3.00
2023-05-10T19:49:32.231Z,2.50
2023-05-10T19:51:58.710Z,2.70
2023-05-10T19:54:25.266Z,2.50
2023-05-10T19:56:51.776Z,3.00
2023-05-10T19:59:18.208Z,2.40
2023-05-10T20:01:46.365Z,2.50
2023-05-10T20:04:13.002Z,2.40
2023-05-10T20:06:39.632Z,2.30
2023-05-10T20:09:06.189Z,2.40
2023-05-10T20:11:32.648Z,2.10
2023-05-10T20:13:59.131Z,2.50
2023-05-10T20:16:26.914Z,2.30
2023-05-10T20:18:54.406Z,2.40
2023-05-10T20:21:21.109Z,2.60
2023-05-10T20:23:47.725Z,2.70
2023-05-10T20:26:14.230Z,2.40
2023-05-10T20:28:40.717Z,2.60
2023-05-10T20:31:07.250Z,2.20
2023-05-10T20:33:33.745Z,2.60
2023-05-10T20:36:00.701Z,2.60
2023-05-10T20:38:27.234Z,2.40
2023-05-10T20:40:53.764Z,2.40
2023-05-10T20:43:20.251Z,2.60
2023-05-10T20:45:47.296Z,2.60
2023-05-10T20:48:13.813Z,3.00
2023-05-10T20:50:40.260Z,2.50
2023-05-10T20:53:06.760Z,2.80
2023-05-10T20:55:33.257Z,3.50
2023-05-10T20:58:00.253Z,2.50
2023-05-10T21:00:27.761Z,2.30
2023-05-10T21:02:54.282Z,2.50
2023-05-10T21:05:20.939Z,2.40
2023-05-10T21:07:47.428Z,2.60
2023-05-10T21:10:13.869Z,2.40
2023-05-10T21:12:40.599Z,2.60
2023-05-10T21:15:07.954Z,2.30
2023-05-10T21:17:34.423Z,2.50
2023-05-10T21:20:00.942Z,2.50
2023-05-10T21:22:27.491Z,3.00
2023-05-10T21:24:54.096Z,2.40
2023-05-10T21:27:20.713Z,2.50
2023-05-10T21:29:47.447Z,2.70
2023-05-10T21:32:13.960Z,2.50
2023-05-10T21:34:40.463Z,2.60
2023-05-10T21:37:06.964Z,2.80
2023-05-10T21:39:33.545Z,2.50
2023-05-10T21:41:59.975Z,2.40
2023-05-10T21:44:26.465Z,2.50
2023-05-10T21:46:52.922Z,2.30
2023-05-10T21:49:19.419Z,2.40
2023-05-10T21:51:45.900Z,2.50
2023-05-10T21:54:12.380Z,2.50
2023-05-10T21:56:38.929Z,2.50
2023-05-10T21:59:05.903Z,2.30
2023-05-10T22:01:32.462Z,2.50
2023-05-10T22:03:58.973Z,2.20
2023-05-10T22:06:25.437Z,2.50
2023-05-10T22:08:52.032Z,2.40
2023-05-10T22:11:18.548Z,2.00
2023-05-10T22:13:45.053Z,2.50
2023-05-10T22:16:11.521Z,2.70
2023-05-10T22:18:38.206Z,2.70
2023-05-10T22:21:04.884Z,3.00
2023-05-10T22:23:31.370Z,2.40
2023-05-10T22:26:04.523Z,2.50
2023-05-10T22:28:31.146Z,2.80
2023-05-10T22:30:57.670Z,2.70
2023-05-10T22:33:24.220Z,2.70
2023-05-10T22:35:50.768Z,2.80
2023-05-10T22:38:17.293Z,2.90
2023-05-10T22:40:43.875Z,2.50
2023-05-10T22:43:10.411Z,2.40
2023-05-10T22:45:36.889Z,2.40
2023-05-10T22:48:04.589Z,2.70
2023-05-10T22:50:31.450Z,2.70
2023-05-10T22:52:57.948Z,2.60
2023-05-10T22:55:24.496Z,2.50
2023-05-10T22:57:52.043Z,3.10
2023-05-10T23:00:19.018Z,2.90
2023-05-10T23:02:45.955Z,3.40
2023-05-10T23:05:12.597Z,3.10
2023-05-10T23:07:39.123Z,4.10
2023-05-10T23:10:06.149Z,3.70
2023-05-10T23:12:32.670Z,2.90
2023-05-10T23:14:59.237Z,2.60
2023-05-10T23:17:25.724Z,2.40
2023-05-10T23:19:52.390Z,2.90
2023-05-10T23:22:18.887Z,2.80
2023-05-10T23:24:45.360Z,2.90
2023-05-10T23:27:11.861Z,2.90
2023-05-10T23:29:38.314Z,3.00
2023-05-10T23:32:05.123Z,2.80
2023-05-10T23:34:31.681Z,2.90
2023-05-10T23:36:58.135Z,3.00
2023-05-10T23:39:24.573Z,3.10
2023-05-10T23:41:51.100Z,3.00
2023-05-10T23:44:17.611Z,3.40
2023-05-10T23:46:44.095Z,2.70
2023-05-10T23:49:10.559Z,2.80
2023-05-10T23:51:36.997Z,2.80
2023-05-10T23:54:03.500Z,3.30
2023-05-10T23:56:29.958Z,2.80
2023-05-10T23:58:56.408Z,2.80
